createdAt,value
2018-05-31T00:01:41.707Z,9.00
2018-05-31T00:04:10.046Z,8.30
2018-05-31T00:06:38.421Z,9.30
2018-05-31T00:09:06.759Z,9.13
2018-05-31T00:11:35.138Z,9.07
2018-05-31T00:14:03.490Z,8.90
2018-05-31T00:16:32.606Z,8.87
2018-05-31T00:19:00.961Z,9.38
2018-05-31T00:21:30.061Z,9.63
2018-05-31T00:23:58.461Z,9.63
2018-05-31T00:26:26.852Z,9.48
2018-05-31T00:28:55.221Z,9.93
2018-05-31T00:31:23.570Z,10.30
2018-05-31T00:33:52.699Z,10.83
2018-05-31T00:36:21.075Z,11.27
2018-05-31T00:38:49.559Z,11.37
2018-05-31T00:41:17.905Z,11.43
2018-05-31T00:43:47.136Z,10.30
2018-05-31T00:46:15.522Z,12.30
2018-05-31T00:48:43.862Z,11.33
2018-05-31T00:51:12.994Z,11.67
2018-05-31T00:53:41.374Z,13.03
2018-05-31T00:56:16.614Z,11.30
2018-05-31T00:58:44.991Z,12.83
2018-05-31T01:01:13.498Z,12.43
2018-05-31T01:03:41.845Z,12.30
2018-05-31T01:06:10.238Z,12.90
2018-05-31T01:08:38.578Z,11.83
2018-05-31T01:11:07.696Z,13.37
2018-05-31T01:13:36.056Z,11.83
2018-05-31T01:16:05.182Z,12.97
2018-05-31T01:18:33.574Z,12.60
2018-05-31T01:21:01.938Z,13.43
2018-05-31T01:23:30.318Z,13.80
2018-05-31T01:25:58.723Z,13.87
2018-05-31T01:28:27.219Z,14.07
2018-05-31T01:30:55.520Z,14.47
2018-05-31T01:33:24.645Z,15.23
2018-05-31T01:35:53.823Z,14.67
2018-05-31T01:38:32.983Z,14.37
2018-05-31T01:41:01.352Z,14.83
2018-05-31T01:43:29.715Z,14.23
2018-05-31T01:45:58.833Z,13.60
2018-05-31T01:48:27.210Z,14.27
2018-05-31T01:50:55.620Z,15.60
2018-05-31T01:53:23.959Z,15.70
2018-05-31T01:55:52.483Z,16.40
2018-05-31T01:58:20.826Z,16.17
2018-05-31T02:00:49.188Z,16.00
2018-05-31T02:03:18.314Z,16.63
2018-05-31T02:05:46.672Z,16.37
2018-05-31T02:08:15.019Z,16.67
2018-05-31T02:10:43.397Z,16.40
2018-05-31T02:13:12.094Z,15.70
2018-05-31T02:15:40.454Z,16.50
2018-05-31T02:18:08.811Z,17.67
2018-05-31T02:20:37.176Z,16.77
2018-05-31T02:23:05.514Z,15.40
2018-05-31T02:25:34.653Z,16.90
2018-05-31T02:28:03.016Z,17.03
2018-05-31T02:30:31.394Z,17.00
2018-05-31T02:32:59.746Z,17.53
2018-05-31T02:35:28.899Z,17.87
2018-05-31T02:37:57.259Z,17.50
2018-05-31T02:40:25.611Z,16.90
2018-05-31T02:42:54.734Z,17.07
2018-05-31T02:45:23.091Z,18.30
2018-05-31T02:47:52.213Z,17.23
2018-05-31T02:50:20.571Z,17.33
2018-05-31T02:52:49.698Z,17.77
2018-05-31T02:55:18.050Z,17.97
2018-05-31T02:57:46.655Z,18.10
2018-05-31T03:00:15.010Z,18.23
2018-05-31T03:02:43.410Z,17.87
2018-05-31T03:05:11.754Z,18.73
2018-05-31T03:07:40.998Z,19.30
2018-05-31T03:10:09.709Z,19.23
2018-05-31T03:12:38.048Z,19.10
2018-05-31T03:15:06.437Z,18.50
2018-05-31T03:17:34.779Z,18.63
2018-05-31T03:20:03.894Z,19.83
2018-05-31T03:22:32.242Z,19.90
2018-05-31T03:25:00.695Z,19.83
2018-05-31T03:27:29.046Z,21.20
2018-05-31T03:29:57.547Z,19.87
2018-05-31T03:32:25.885Z,19.77
2018-05-31T03:34:55.297Z,20.23
2018-05-31T03:37:23.636Z,19.90
2018-05-31T03:39:52.078Z,20.03
2018-05-31T03:42:20.463Z,19.07
2018-05-31T03:44:48.995Z,20.43
2018-05-31T03:47:17.342Z,20.70
2018-05-31T03:49:45.685Z,19.63
2018-05-31T03:52:14.078Z,19.77
2018-05-31T03:54:42.459Z,19.13
2018-05-31T03:57:10.857Z,20.33
2018-05-31T03:59:39.199Z,21.10
2018-05-31T04:02:07.695Z,17.73
2018-05-31T04:04:36.069Z,18.47
2018-05-31T04:07:04.497Z,20.67
2018-05-31T04:09:32.937Z,21.53
2018-05-31T04:12:01.356Z,19.13
2018-05-31T04:14:29.965Z,19.73
2018-05-31T04:16:59.207Z,20.10
2018-05-31T04:19:27.546Z,21.07
2018-05-31T04:21:56.673Z,19.67
2018-05-31T04:24:25.021Z,21.10
2018-05-31T04:26:54.144Z,21.33
2018-05-31T04:29:22.526Z,19.30
2018-05-31T04:31:50.876Z,23.30
2018-05-31T04:34:20.005Z,23.07
2018-05-31T04:36:48.417Z,22.67
2018-05-31T04:39:16.862Z,22.13
2018-05-31T04:41:45.212Z,21.33
2018-05-31T04:44:14.322Z,20.93
2018-05-31T04:46:42.662Z,20.63
2018-05-31T04:49:11.053Z,20.27
2018-05-31T04:51:39.396Z,19.83
2018-05-31T04:54:07.743Z,18.60
2018-05-31T04:56:36.090Z,32.13
2018-05-31T04:59:05.219Z,25.80
2018-05-31T05:01:33.574Z,23.33
2018-05-31T05:04:02.683Z,20.40
2018-05-31T05:06:31.046Z,18.83
2018-05-31T05:08:59.382Z,20.13
2018-05-31T05:11:27.756Z,19.73
2018-05-31T05:13:56.132Z,18.57
2018-05-31T05:16:24.563Z,21.27
2018-05-31T05:18:53.701Z,22.17
2018-05-31T05:21:22.074Z,22.40
2018-05-31T05:23:50.576Z,19.77
2018-05-31T05:26:18.916Z,19.27
2018-05-31T05:28:47.266Z,23.50
2018-05-31T05:31:15.647Z,19.80
2018-05-31T05:33:44.080Z,18.90
2018-05-31T05:36:12.458Z,18.50
2018-05-31T05:38:40.941Z,17.85
2018-05-31T05:41:09.386Z,17.90
2018-05-31T05:43:38.515Z,18.67
2018-05-31T05:46:06.924Z,17.98
2018-05-31T05:48:35.289Z,18.40
2018-05-31T05:51:03.723Z,18.10
2018-05-31T05:53:32.853Z,17.48
2018-05-31T05:56:01.272Z,18.30
2018-05-31T05:58:29.634Z,17.67
2018-05-31T06:00:57.995Z,18.00
2018-05-31T06:03:26.425Z,15.43
2018-05-31T06:05:55.678Z,14.23
2018-05-31T06:08:24.054Z,16.08
2018-05-31T06:10:52.438Z,15.57
2018-05-31T06:13:20.775Z,15.63
2018-05-31T06:15:50.008Z,16.12
2018-05-31T06:18:18.544Z,15.45
2018-05-31T06:20:46.989Z,16.35
2018-05-31T06:23:16.239Z,15.45
2018-05-31T06:25:44.599Z,15.95
2018-05-31T06:28:13.150Z,16.02
2018-05-31T06:30:41.530Z,15.73
2018-05-31T06:33:09.875Z,14.00
2018-05-31T06:35:38.237Z,13.90
2018-05-31T06:38:07.401Z,15.27
2018-05-31T06:40:35.868Z,15.93
2018-05-31T06:43:04.203Z,17.05
2018-05-31T06:45:33.335Z,16.50
2018-05-31T06:48:01.708Z,16.60
2018-05-31T06:50:30.078Z,15.35
2018-05-31T06:52:58.510Z,16.23
2018-05-31T06:55:26.865Z,17.45
2018-05-31T06:57:55.222Z,15.63
2018-05-31T07:00:24.714Z,14.25
2018-05-31T07:02:53.082Z,15.15
2018-05-31T07:05:22.410Z,14.13
2018-05-31T07:07:50.765Z,15.75
2018-05-31T07:10:19.119Z,16.62
2018-05-31T07:12:47.475Z,15.88
2018-05-31T07:15:15.930Z,15.05
2018-05-31T07:17:44.293Z,15.48
2018-05-31T07:20:12.638Z,14.75
2018-05-31T07:22:41.088Z,13.35
2018-05-31T07:25:09.555Z,15.07
2018-05-31T07:27:37.886Z,14.15
2018-05-31T07:30:07.011Z,12.93
2018-05-31T07:32:35.363Z,11.98
2018-05-31T07:35:04.484Z,11.90
2018-05-31T07:37:32.858Z,12.80
2018-05-31T07:40:01.278Z,13.43
2018-05-31T07:42:29.630Z,12.73
2018-05-31T07:44:57.999Z,13.20
2018-05-31T07:47:26.423Z,13.88
2018-05-31T07:49:54.796Z,14.02
2018-05-31T07:52:23.167Z,17.02
2018-05-31T07:54:51.518Z,16.95
2018-05-31T07:57:19.888Z,15.60
2018-05-31T07:59:48.994Z,16.98
2018-05-31T08:02:17.367Z,17.55
2018-05-31T08:04:45.767Z,13.68
2018-05-31T08:07:14.342Z,14.32
2018-05-31T08:09:42.726Z,12.25
2018-05-31T08:12:11.083Z,11.77
2018-05-31T08:14:40.190Z,11.85
2018-05-31T08:17:08.559Z,11.68
2018-05-31T08:19:37.698Z,11.43
2018-05-31T08:22:06.049Z,11.15
2018-05-31T08:24:34.441Z,11.95
2018-05-31T08:27:02.836Z,11.80
2018-05-31T08:29:31.181Z,10.68
2018-05-31T08:32:00.294Z,10.48
2018-05-31T08:34:28.670Z,11.05
2018-05-31T08:36:57.022Z,11.00
2018-05-31T08:39:26.575Z,11.18
2018-05-31T08:41:54.901Z,10.90
2018-05-31T08:44:24.037Z,12.35
2018-05-31T08:46:52.373Z,12.57
2018-05-31T08:49:21.514Z,10.93
2018-05-31T08:51:49.850Z,11.00
2018-05-31T08:54:19.087Z,10.30
2018-05-31T08:56:47.467Z,10.10
2018-05-31T08:59:15.912Z,10.88
2018-05-31T09:01:45.055Z,11.02
2018-05-31T09:04:13.432Z,11.20
2018-05-31T09:06:41.867Z,11.73
2018-05-31T09:09:10.309Z,11.40
2018-05-31T09:11:38.657Z,12.13
2018-05-31T09:14:07.000Z,14.80
2018-05-31T09:16:35.364Z,15.40
2018-05-31T09:19:03.717Z,13.70
2018-05-31T09:21:32.091Z,13.57
2018-05-31T09:24:00.470Z,13.68
2018-05-31T09:26:28.850Z,13.40
2018-05-31T09:28:57.234Z,13.55
2018-05-31T09:31:25.703Z,12.57
2018-05-31T09:33:54.054Z,12.07
2018-05-31T09:36:23.299Z,11.35
2018-05-31T09:38:51.674Z,12.43
2018-05-31T09:41:20.008Z,10.65
2018-05-31T09:43:49.134Z,10.55
2018-05-31T09:46:17.575Z,10.93
2018-05-31T09:48:46.741Z,12.07
2018-05-31T09:51:15.080Z,11.45
2018-05-31T09:53:43.477Z,11.68
2018-05-31T09:56:11.863Z,10.05
2018-05-31T09:58:40.237Z,10.50
2018-05-31T10:01:08.611Z,10.90
2018-05-31T10:03:36.995Z,10.38
2018-05-31T10:06:05.362Z,10.25
2018-05-31T10:08:33.742Z,11.75
2018-05-31T10:11:02.147Z,11.27
2018-05-31T10:13:30.510Z,10.40
2018-05-31T10:15:59.794Z,10.27
2018-05-31T10:18:28.135Z,9.50
2018-05-31T10:20:56.570Z,9.60
2018-05-31T10:23:24.927Z,10.52
2018-05-31T10:25:53.308Z,10.68
2018-05-31T10:28:21.654Z,10.73
2018-05-31T10:30:50.122Z,9.57
2018-05-31T10:33:18.571Z,10.18
2018-05-31T10:35:46.920Z,10.82
2018-05-31T10:38:15.318Z,9.85
2018-05-31T10:40:43.680Z,9.52
2018-05-31T10:43:12.784Z,10.10
2018-05-31T10:45:41.215Z,10.20
2018-05-31T10:48:09.988Z,9.55
2018-05-31T10:50:38.351Z,9.50
2018-05-31T10:53:06.714Z,8.82
2018-05-31T10:55:35.834Z,9.20
2018-05-31T10:58:04.193Z,9.57
2018-05-31T11:00:32.581Z,9.30
2018-05-31T11:03:00.964Z,9.85
2018-05-31T11:05:29.310Z,8.50
2018-05-31T11:07:58.432Z,7.78
2018-05-31T11:10:26.787Z,8.20
2018-05-31T11:12:56.032Z,8.85
2018-05-31T11:15:24.387Z,9.45
2018-05-31T11:17:52.774Z,14.25
2018-05-31T11:20:21.144Z,8.63
2018-05-31T11:22:49.527Z,7.15
2018-05-31T11:25:17.872Z,7.47
2018-05-31T11:27:46.983Z,7.97
2018-05-31T11:30:16.102Z,8.23
2018-05-31T11:32:44.475Z,7.40
2018-05-31T11:35:12.859Z,7.40
2018-05-31T11:37:41.293Z,8.50
2018-05-31T11:40:09.639Z,7.97
2018-05-31T11:42:38.189Z,7.90
2018-05-31T11:45:07.394Z,6.97
2018-05-31T11:47:35.775Z,6.85
2018-05-31T11:50:04.180Z,7.72
2018-05-31T11:52:32.526Z,7.30
2018-05-31T11:55:00.915Z,7.35
2018-05-31T11:57:29.277Z,8.40
2018-05-31T11:59:58.402Z,9.50
2018-05-31T12:02:26.799Z,7.35
2018-05-31T12:04:55.214Z,7.65
2018-05-31T12:07:23.559Z,7.75
2018-05-31T12:09:51.926Z,7.32
2018-05-31T12:12:20.297Z,8.00
2018-05-31T12:14:48.631Z,10.45
2018-05-31T12:17:17.785Z,9.18
2018-05-31T12:19:46.273Z,8.00
2018-05-31T12:22:14.662Z,8.48
2018-05-31T12:24:43.003Z,10.02
2018-05-31T12:27:11.382Z,9.70
2018-05-31T12:29:39.734Z,9.10
2018-05-31T12:32:09.004Z,9.18
2018-05-31T12:34:37.452Z,12.05
2018-05-31T12:39:40.563Z,10.07
2018-05-31T12:42:09.012Z,10.35
2018-05-31T12:44:38.131Z,9.80
2018-05-31T12:47:06.478Z,9.32
2018-05-31T12:49:35.636Z,9.65
2018-05-31T12:52:03.981Z,9.77
2018-05-31T12:54:32.342Z,9.55
2018-05-31T12:57:00.682Z,9.57
2018-05-31T12:59:29.035Z,10.40
2018-05-31T13:01:57.424Z,10.60
2018-05-31T13:04:25.891Z,10.88
2018-05-31T13:06:54.290Z,11.35
2018-05-31T13:09:22.646Z,10.13
2018-05-31T13:11:51.011Z,11.02
2018-05-31T13:14:20.115Z,10.90
2018-05-31T13:16:48.513Z,13.38
2018-05-31T13:19:16.884Z,14.65
2018-05-31T13:21:45.241Z,11.70
2018-05-31T13:24:13.727Z,10.65
2018-05-31T13:26:42.163Z,11.55
2018-05-31T13:29:10.600Z,12.05
2018-05-31T13:31:38.951Z,11.27
2018-05-31T13:34:08.083Z,12.02
2018-05-31T13:36:36.459Z,12.25
2018-05-31T13:39:06.782Z,11.77
2018-05-31T13:41:35.258Z,15.35
2018-05-31T13:44:03.850Z,17.12
2018-05-31T13:46:32.208Z,12.20
2018-05-31T13:49:00.674Z,11.77
2018-05-31T13:51:29.789Z,13.62
2018-05-31T13:53:59.035Z,13.85
2018-05-31T13:56:27.439Z,14.63
2018-05-31T13:58:56.575Z,13.45
2018-05-31T14:01:24.973Z,14.15
2018-05-31T14:03:53.551Z,13.27
2018-05-31T14:06:21.852Z,13.02
2018-05-31T14:08:50.315Z,13.95
2018-05-31T14:11:18.680Z,13.40
2018-05-31T14:13:47.045Z,12.45
2018-05-31T14:16:15.410Z,12.82
2018-05-31T14:18:44.556Z,12.85
2018-05-31T14:21:13.052Z,12.63
2018-05-31T14:23:41.445Z,11.88
2018-05-31T14:26:09.799Z,11.48
2018-05-31T14:28:38.172Z,12.02
2018-05-31T14:31:06.506Z,10.88
2018-05-31T14:33:34.896Z,10.90
2018-05-31T14:36:03.297Z,11.15
2018-05-31T14:38:31.666Z,13.38
2018-05-31T14:41:00.124Z,11.45
2018-05-31T14:43:29.319Z,9.60
2018-05-31T14:45:58.574Z,8.43
2018-05-31T14:48:26.926Z,9.15
2018-05-31T14:50:55.284Z,8.43
2018-05-31T14:53:24.414Z,9.10
2018-05-31T14:55:52.766Z,9.18
2018-05-31T14:58:21.128Z,9.50
2018-05-31T15:00:50.295Z,9.15
2018-05-31T15:03:18.655Z,9.35
2018-05-31T15:05:47.721Z,9.50
2018-05-31T15:08:16.088Z,8.98
2018-05-31T15:10:45.202Z,10.90
2018-05-31T15:13:13.846Z,10.18
2018-05-31T15:15:42.197Z,8.88
2018-05-31T15:18:10.579Z,8.50
2018-05-31T15:20:38.922Z,9.20
2018-05-31T15:23:07.288Z,8.38
2018-05-31T15:25:36.466Z,8.32
2018-05-31T15:28:05.802Z,9.00
2018-05-31T15:30:34.385Z,8.73
2018-05-31T15:33:02.782Z,8.13
2018-05-31T15:35:31.152Z,8.85
2018-05-31T15:37:59.502Z,8.23
2018-05-31T15:40:28.640Z,8.38
2018-05-31T15:42:57.038Z,9.32
2018-05-31T15:45:26.309Z,10.40
2018-05-31T15:47:54.666Z,9.25
2018-05-31T15:50:23.921Z,7.93
2018-05-31T15:52:52.271Z,7.93
2018-05-31T15:55:20.633Z,8.07
2018-05-31T15:57:49.031Z,7.97
2018-05-31T16:00:17.374Z,8.90
2018-05-31T16:02:45.730Z,8.02
2018-05-31T16:05:14.183Z,8.40
2018-05-31T16:07:42.538Z,8.77
2018-05-31T16:10:10.935Z,8.30
2018-05-31T16:12:39.296Z,8.00
2018-05-31T16:15:07.654Z,8.30
2018-05-31T16:17:36.775Z,8.55
2018-05-31T16:20:05.162Z,8.05
2018-05-31T16:22:33.534Z,7.65
2018-05-31T16:25:01.871Z,8.50
2018-05-31T16:27:30.306Z,8.60
2018-05-31T16:29:58.679Z,9.23
2018-05-31T16:32:27.083Z,11.05
2018-05-31T16:34:55.460Z,17.02
2018-05-31T16:37:23.974Z,9.65
2018-05-31T16:39:52.617Z,9.40
2018-05-31T16:42:20.950Z,9.10
2018-05-31T16:44:50.066Z,8.70
2018-05-31T16:47:18.415Z,8.45
2018-05-31T16:49:46.753Z,8.50
2018-05-31T16:52:15.115Z,8.75
2018-05-31T16:54:43.486Z,8.93
2018-05-31T16:57:11.951Z,8.38
2018-05-31T16:59:41.346Z,9.05
2018-05-31T17:02:10.683Z,8.55
2018-05-31T17:04:39.031Z,8.90
2018-05-31T17:07:08.171Z,9.55
2018-05-31T17:09:36.615Z,9.40
2018-05-31T17:12:05.702Z,9.82
2018-05-31T17:14:34.107Z,9.43
2018-05-31T17:17:02.460Z,10.20
2018-05-31T17:19:31.574Z,10.32
2018-05-31T17:21:59.926Z,10.25
2018-05-31T17:24:28.292Z,10.55
2018-05-31T17:26:56.831Z,10.15
2018-05-31T17:29:25.386Z,11.55
2018-05-31T17:31:54.490Z,11.98
2018-05-31T17:34:22.851Z,11.90
2018-05-31T17:36:51.990Z,11.98
2018-05-31T17:39:20.442Z,12.10
2018-05-31T17:41:49.678Z,13.60
2018-05-31T17:44:18.080Z,14.80
2018-05-31T17:46:46.442Z,13.80
2018-05-31T17:49:14.864Z,21.50
2018-05-31T17:51:43.171Z,15.23
2018-05-31T17:54:11.523Z,14.40
2018-05-31T17:56:40.650Z,14.05
2018-05-31T17:59:09.031Z,14.82
2018-05-31T18:01:37.432Z,15.70
2018-05-31T18:04:05.821Z,14.85
2018-05-31T18:06:34.181Z,15.75
2018-05-31T18:09:02.535Z,15.73
2018-05-31T18:11:30.992Z,16.05
2018-05-31T18:14:00.764Z,17.27
2018-05-31T18:16:29.128Z,17.00
2018-05-31T18:18:57.503Z,16.45
2018-05-31T18:21:25.911Z,16.80
2018-05-31T18:23:54.291Z,16.58
2018-05-31T18:26:22.647Z,16.92
2018-05-31T18:28:51.018Z,15.80
2018-05-31T18:31:19.372Z,16.10
2018-05-31T18:33:48.526Z,16.10
2018-05-31T18:36:17.802Z,15.13
2018-05-31T18:38:46.150Z,15.18
2018-05-31T18:41:15.275Z,16.25
2018-05-31T18:43:43.663Z,21.75
2018-05-31T18:46:12.069Z,18.25
2018-05-31T18:48:40.851Z,18.02
2018-05-31T18:51:10.740Z,18.00
2018-05-31T18:53:39.118Z,18.30
2018-05-31T18:56:07.712Z,18.65
2018-05-31T18:58:36.893Z,18.30
2018-05-31T19:01:05.240Z,17.25
2018-05-31T19:03:34.374Z,16.55
2018-05-31T19:06:02.901Z,15.43
2018-05-31T19:08:31.465Z,17.08
2018-05-31T19:10:59.804Z,16.02
2018-05-31T19:16:28.963Z,17.80
2018-05-31T19:19:03.068Z,16.55
2018-05-31T19:21:32.456Z,17.87
2018-05-31T19:24:06.419Z,17.65
2018-05-31T19:26:34.872Z,18.08
2018-05-31T19:29:03.334Z,17.12
2018-05-31T19:31:31.807Z,17.73
2018-05-31T19:34:00.281Z,25.37
2018-05-31T19:36:34.250Z,30.50
2018-05-31T19:39:02.610Z,26.02
2018-05-31T19:41:30.973Z,20.65
2018-05-31T19:44:05.038Z,21.35
2018-05-31T19:46:34.298Z,19.50
2018-05-31T19:49:02.660Z,20.55
2018-05-31T19:51:37.161Z,20.12
2018-05-31T19:54:05.521Z,19.58
2018-05-31T19:56:34.254Z,31.87
2018-05-31T19:59:08.367Z,27.45
2018-05-31T20:01:42.534Z,24.80
2018-05-31T20:04:11.682Z,24.77
2018-05-31T20:06:40.216Z,23.70
2018-05-31T20:09:09.063Z,24.80
2018-05-31T20:11:37.541Z,24.45
2018-05-31T20:14:06.007Z,24.27
2018-05-31T20:16:34.394Z,22.42
2018-05-31T20:19:04.182Z,21.98
2018-05-31T20:21:32.799Z,22.60
2018-05-31T20:24:01.219Z,23.73
2018-05-31T20:26:30.434Z,24.52
2018-05-31T20:28:59.628Z,23.92
2018-05-31T20:31:28.781Z,22.10
2018-05-31T20:33:58.024Z,21.98
2018-05-31T20:36:27.188Z,21.02
2018-05-31T20:38:55.541Z,22.33
2018-05-31T20:41:23.916Z,21.48
2018-05-31T20:43:52.255Z,19.37
2018-05-31T20:46:21.379Z,19.23
2018-05-31T20:48:49.786Z,20.00
2018-05-31T20:51:18.160Z,18.70
2018-05-31T20:53:47.275Z,18.50
2018-05-31T20:56:15.707Z,19.23
2018-05-31T20:58:44.068Z,18.87
2018-05-31T21:01:13.207Z,18.62
2018-05-31T21:03:41.575Z,17.67
2018-05-31T21:06:09.973Z,19.08
2018-05-31T21:08:38.396Z,19.02
2018-05-31T21:11:06.763Z,20.73
2018-05-31T21:13:35.154Z,20.27
2018-05-31T21:16:03.754Z,19.73
2018-05-31T21:18:32.870Z,20.17
2018-05-31T21:21:01.407Z,19.08
2018-05-31T21:23:29.847Z,19.27
2018-05-31T21:25:58.190Z,18.95
2018-05-31T21:28:27.473Z,19.23
2018-05-31T21:30:55.908Z,18.90
2018-05-31T21:33:24.269Z,19.98
2018-05-31T21:35:52.668Z,19.08
2018-05-31T21:38:21.039Z,18.10
2018-05-31T21:40:49.420Z,17.48
2018-05-31T21:43:17.777Z,19.20
2018-05-31T21:45:46.886Z,19.75
2018-05-31T21:48:15.231Z,19.77
2018-05-31T21:50:44.430Z,17.95
2018-05-31T21:53:13.552Z,19.40
2018-05-31T21:55:42.659Z,17.85
2018-05-31T21:58:11.150Z,18.42
2018-05-31T22:00:45.294Z,18.75
2018-05-31T22:03:13.659Z,18.65
2018-05-31T22:05:42.170Z,18.08
2018-05-31T22:08:10.499Z,17.75
2018-05-31T22:10:38.898Z,16.58
2018-05-31T22:13:07.288Z,17.08
2018-05-31T22:15:35.642Z,21.92
2018-05-31T22:18:04.017Z,21.73
2018-05-31T22:20:32.374Z,20.85
2018-05-31T22:23:01.482Z,19.90
2018-05-31T22:25:29.842Z,19.42
2018-05-31T22:27:58.963Z,16.80
2018-05-31T22:30:27.361Z,17.00
2018-05-31T22:32:55.726Z,15.60
2018-05-31T22:35:24.104Z,14.02
2018-05-31T22:37:52.482Z,12.80
2018-05-31T22:40:20.857Z,12.57
2018-05-31T22:42:49.227Z,12.77
2018-05-31T22:45:17.624Z,12.35
2018-05-31T22:47:46.002Z,11.77
2018-05-31T22:50:14.360Z,12.00
2018-05-31T22:52:43.492Z,11.02
2018-05-31T22:55:11.838Z,11.35
2018-05-31T22:57:40.811Z,10.70
2018-05-31T23:00:09.929Z,9.63
2018-05-31T23:02:38.281Z,9.32
2018-05-31T23:05:06.618Z,8.02
2018-05-31T23:07:34.949Z,6.87
2018-05-31T23:10:04.065Z,6.22
2018-05-31T23:12:32.404Z,5.80
2018-05-31T23:15:00.842Z,5.50
2018-05-31T23:17:29.435Z,6.57
2018-05-31T23:19:57.783Z,5.18
2018-05-31T23:22:26.811Z,4.97
2018-05-31T23:24:55.283Z,4.90
2018-05-31T23:27:23.628Z,4.50
2018-05-31T23:29:52.238Z,4.90
2018-05-31T23:32:20.630Z,4.85
2018-05-31T23:34:48.976Z,6.03
2018-05-31T23:37:18.153Z,5.50
2018-05-31T23:39:46.587Z,6.62
2018-05-31T23:42:15.241Z,7.10
2018-05-31T23:44:43.761Z,6.70
2018-05-31T23:47:13.054Z,7.03
2018-05-31T23:49:41.635Z,8.60
2018-05-31T23:52:10.215Z,10.27
2018-05-31T23:54:38.633Z,8.85
2018-05-31T23:57:07.084Z,8.88
2018-05-31T23:59:35.825Z,8.73
